createdAt,value
2018-07-17T00:01:50.509Z,98385.00
2018-07-17T00:04:23.792Z,98386.00
2018-07-17T00:06:53.825Z,98387.00
2018-07-17T00:09:23.537Z,98389.00
2018-07-17T00:11:55.883Z,98389.00
2018-07-17T00:14:26.517Z,98392.00
2018-07-17T00:16:55.616Z,98392.00
2018-07-17T00:19:28.071Z,98393.00
2018-07-17T00:21:59.240Z,98387.00
2018-07-17T00:24:31.294Z,98394.00
2018-07-17T00:27:02.542Z,98394.00
2018-07-17T00:29:31.820Z,98389.00
2018-07-17T00:32:04.550Z,98391.00
2018-07-17T00:34:34.466Z,98390.00
2018-07-17T00:37:05.566Z,98394.00
2018-07-17T00:39:39.028Z,98395.00
2018-07-17T00:42:19.425Z,98396.00
2018-07-17T00:44:50.714Z,98397.00
2018-07-17T00:47:23.924Z,98401.00
2018-07-17T00:49:53.064Z,98400.00
2018-07-17T00:52:27.811Z,98401.00
2018-07-17T00:54:58.548Z,98403.00
2018-07-17T00:57:32.666Z,98404.00
2018-07-17T01:00:03.416Z,98401.00
2018-07-17T01:02:39.631Z,98400.00
2018-07-17T01:05:14.878Z,98395.00
2018-07-17T01:07:50.704Z,98397.00
2018-07-17T01:10:27.342Z,98393.00
2018-07-17T01:12:59.374Z,98395.00
2018-07-17T01:15:39.316Z,98394.00
2018-07-17T01:18:10.567Z,98388.00
2018-07-17T01:20:41.325Z,98385.00
2018-07-17T01:23:19.092Z,98382.00
2018-07-17T01:25:49.029Z,98377.00
2018-07-17T01:28:21.021Z,98377.00
2018-07-17T01:30:52.849Z,98381.00
2018-07-17T01:33:26.199Z,98381.00
2018-07-17T01:35:59.099Z,98379.00
2018-07-17T01:38:37.690Z,98376.00
2018-07-17T01:41:10.109Z,98382.00
2018-07-17T01:43:41.601Z,98389.00
2018-07-17T01:46:13.529Z,98395.00
2018-07-17T01:48:48.056Z,98389.00
2018-07-17T01:51:19.614Z,98389.00
2018-07-17T01:53:50.432Z,98392.00
2018-07-17T01:56:23.317Z,98392.00
2018-07-17T01:58:53.545Z,98389.00
2018-07-17T02:01:24.393Z,98394.00
2018-07-17T02:03:55.540Z,98388.00
2018-07-17T02:06:26.873Z,98386.00
2018-07-17T02:08:59.866Z,98385.00
2018-07-17T02:11:29.573Z,98388.00
2018-07-17T02:14:00.743Z,98386.00
2018-07-17T02:16:33.596Z,98384.00
2018-07-17T02:19:04.434Z,98384.00
2018-07-17T02:21:34.672Z,98391.00
2018-07-17T02:24:05.212Z,98396.00
2018-07-17T02:26:37.567Z,98397.00
2018-07-17T02:29:09.728Z,98387.00
2018-07-17T02:31:40.413Z,98393.00
2018-07-17T02:34:10.289Z,98396.00
2018-07-17T02:36:41.732Z,98404.00
2018-07-17T02:39:13.686Z,98399.00
2018-07-17T02:41:44.625Z,98403.00
2018-07-17T02:44:17.515Z,98400.00
2018-07-17T02:46:48.569Z,98403.00
2018-07-17T02:49:18.774Z,98407.00
2018-07-17T02:51:50.538Z,98408.00
2018-07-17T02:54:24.912Z,98411.00
2018-07-17T02:56:56.256Z,98405.00
2018-07-17T02:59:30.520Z,98405.00
2018-07-17T03:02:00.847Z,98400.00
2018-07-17T03:04:35.856Z,98399.00
2018-07-17T03:07:05.968Z,98394.00
2018-07-17T03:09:39.401Z,98394.00
2018-07-17T03:12:10.416Z,98393.00
2018-07-17T03:14:43.173Z,98397.00
2018-07-17T03:17:14.269Z,98404.00
2018-07-17T03:19:48.112Z,98411.00
2018-07-17T03:22:20.039Z,98410.00
2018-07-17T03:24:50.408Z,98413.00
2018-07-17T03:27:23.039Z,98415.00
2018-07-17T03:29:59.502Z,98417.00
2018-07-17T03:32:34.613Z,98417.00
2018-07-17T03:35:10.513Z,98416.00
2018-07-17T03:37:42.258Z,98421.00
2018-07-17T03:40:13.981Z,98419.00
2018-07-17T03:42:43.822Z,98430.00
2018-07-17T03:45:25.365Z,98432.00
2018-07-17T03:47:59.608Z,98434.00
2018-07-17T03:50:31.736Z,98435.00
2018-07-17T03:53:06.113Z,98431.00
2018-07-17T03:55:44.485Z,98437.00
2018-07-17T03:58:18.193Z,98438.00
2018-07-17T04:00:48.353Z,98442.00
2018-07-17T04:03:26.932Z,98442.00
2018-07-17T04:06:00.479Z,98441.00
2018-07-17T04:08:36.345Z,98448.00
2018-07-17T04:11:11.239Z,98452.00
2018-07-17T04:13:40.638Z,98453.00
2018-07-17T04:16:16.274Z,98454.00
2018-07-17T04:18:48.075Z,98459.00
2018-07-17T04:21:20.337Z,98455.00
2018-07-17T04:23:54.149Z,98460.00
2018-07-17T04:26:27.133Z,98458.00
2018-07-17T04:28:57.844Z,98459.00
2018-07-17T04:31:29.041Z,98459.00
2018-07-17T04:34:02.932Z,98455.00
2018-07-17T04:36:33.102Z,98457.00
2018-07-17T04:39:07.461Z,98457.00
2018-07-17T04:41:37.585Z,98455.00
2018-07-17T04:44:10.548Z,98457.00
2018-07-17T04:46:43.892Z,98461.00
2018-07-17T04:49:15.632Z,98464.00
2018-07-17T04:51:47.114Z,98466.00
2018-07-17T04:54:18.268Z,98471.00
2018-07-17T04:56:50.102Z,98464.00
2018-07-17T04:59:22.041Z,98466.00
2018-07-17T05:01:53.583Z,98471.00
2018-07-17T05:04:25.460Z,98473.00
2018-07-17T05:06:55.840Z,98469.00
2018-07-17T05:09:26.540Z,98471.00
2018-07-17T05:11:59.048Z,98475.00
2018-07-17T05:14:28.867Z,98475.00
2018-07-17T05:16:59.942Z,98473.00
2018-07-17T05:19:29.641Z,98479.00
2018-07-17T05:22:00.296Z,98481.00
2018-07-17T05:24:35.553Z,98486.00
2018-07-17T05:27:07.244Z,98487.00
2018-07-17T05:29:39.347Z,98487.00
2018-07-17T05:32:08.828Z,98492.00
2018-07-17T05:34:40.368Z,98491.00
2018-07-17T05:37:10.065Z,98492.00
2018-07-17T05:39:41.117Z,98488.00
2018-07-17T05:42:16.037Z,98491.00
2018-07-17T05:44:47.565Z,98490.00
2018-07-17T05:47:28.044Z,98491.00
2018-07-17T05:50:03.016Z,98488.00
2018-07-17T05:52:41.719Z,98489.00
2018-07-17T05:55:22.519Z,98486.00
2018-07-17T06:00:37.276Z,98477.00
2018-07-17T06:03:19.001Z,98475.00
2018-07-17T06:05:59.638Z,98478.00
2018-07-17T06:08:36.518Z,98482.00
2018-07-17T06:11:12.966Z,98477.00
2018-07-17T06:13:47.912Z,98477.00
2018-07-17T06:16:27.754Z,98479.00
2018-07-17T06:19:00.541Z,98479.00
2018-07-17T06:21:32.774Z,98480.00
2018-07-17T06:24:09.585Z,98470.00
2018-07-17T06:26:38.803Z,98471.00
2018-07-17T06:29:11.475Z,98469.00
2018-07-17T06:31:41.498Z,98464.00
2018-07-17T06:34:17.569Z,98466.00
2018-07-17T06:36:46.993Z,98468.00
2018-07-17T06:39:18.342Z,98470.00
2018-07-17T06:41:48.006Z,98469.00
2018-07-17T06:44:17.084Z,98468.00
2018-07-17T06:46:46.912Z,98467.00
2018-07-17T06:49:16.085Z,98468.00
2018-07-17T06:51:45.144Z,98472.00
2018-07-17T06:54:14.564Z,98469.00
2018-07-17T06:56:43.676Z,98464.00
2018-07-17T06:59:13.110Z,98460.00
2018-07-17T07:01:43.258Z,98459.00
2018-07-17T07:04:13.233Z,98462.00
2018-07-17T07:06:42.313Z,98454.00
2018-07-17T07:09:12.241Z,98452.00
2018-07-17T07:11:41.358Z,98456.00
2018-07-17T07:14:11.216Z,98451.00
2018-07-17T07:16:40.728Z,98453.00
2018-07-17T07:19:11.197Z,98450.00
2018-07-17T07:21:40.457Z,98452.00
2018-07-17T07:24:10.572Z,98451.00
2018-07-17T07:26:41.228Z,98446.00
2018-07-17T07:29:12.180Z,98440.00
2018-07-17T07:31:42.699Z,98436.00
2018-07-17T07:34:14.140Z,98438.00
2018-07-17T07:36:45.201Z,98430.00
2018-07-17T07:39:15.532Z,98424.00
2018-07-17T07:41:44.841Z,98409.00
2018-07-17T07:44:19.564Z,98400.00
2018-07-17T07:46:51.721Z,98388.00
2018-07-17T07:49:29.888Z,98382.00
2018-07-17T07:52:00.265Z,98385.00
2018-07-17T07:54:32.732Z,98386.00
2018-07-17T07:57:04.500Z,98384.00
2018-07-17T07:59:39.142Z,98380.00
2018-07-17T08:02:10.741Z,98370.00
2018-07-17T08:04:41.239Z,98372.00
2018-07-17T08:07:14.820Z,98369.00
2018-07-17T08:09:48.268Z,98375.00
2018-07-17T08:12:18.134Z,98377.00
2018-07-17T08:14:56.908Z,98384.00
2018-07-17T08:17:28.662Z,98381.00
2018-07-17T08:19:59.700Z,98380.00
2018-07-17T08:22:31.496Z,98377.00
2018-07-17T08:25:05.686Z,98376.00
2018-07-17T08:27:38.245Z,98374.00
2018-07-17T08:30:09.545Z,98378.00
2018-07-17T08:32:43.978Z,98378.00
2018-07-17T08:35:18.090Z,98377.00
2018-07-17T08:37:49.745Z,98381.00
2018-07-17T08:40:20.828Z,98374.00
2018-07-17T08:42:50.752Z,98374.00
2018-07-17T08:45:25.081Z,98377.00
2018-07-17T08:47:57.103Z,98378.00
2018-07-17T08:50:28.925Z,98391.00
2018-07-17T08:53:01.269Z,98386.00
2018-07-17T08:55:31.417Z,98381.00
2018-07-17T08:58:01.540Z,98378.00
2018-07-17T09:00:32.306Z,98372.00
2018-07-17T09:03:02.251Z,98369.00
2018-07-17T09:05:38.234Z,98375.00
2018-07-17T09:08:11.344Z,98370.00
2018-07-17T09:10:50.991Z,98367.00
2018-07-17T09:13:20.897Z,98372.00
2018-07-17T09:15:53.561Z,98371.00
2018-07-17T09:18:28.387Z,98373.00
2018-07-17T09:21:00.893Z,98376.00
2018-07-17T09:23:37.333Z,98375.00
2018-07-17T09:26:08.268Z,98369.00
2018-07-17T09:28:38.626Z,98378.00
2018-07-17T09:31:08.220Z,98376.00
2018-07-17T09:33:43.197Z,98384.00
2018-07-17T09:36:12.322Z,98376.00
2018-07-17T09:38:42.164Z,98386.00
2018-07-17T09:41:11.948Z,98396.00
2018-07-17T09:43:47.477Z,98398.00
2018-07-17T09:46:23.946Z,98404.00
2018-07-17T09:48:58.853Z,98396.00
2018-07-17T09:51:29.631Z,98407.00
2018-07-17T09:53:59.793Z,98402.00
2018-07-17T09:56:29.357Z,98401.00
2018-07-17T09:59:02.024Z,98386.00
2018-07-17T10:01:40.024Z,98376.00
2018-07-17T10:04:12.600Z,98380.00
2018-07-17T10:06:47.309Z,98385.00
2018-07-17T10:09:18.929Z,98386.00
2018-07-17T10:11:48.726Z,98381.00
2018-07-17T10:14:21.614Z,98379.00
2018-07-17T10:16:57.825Z,98376.00
2018-07-17T10:19:33.801Z,98379.00
2018-07-17T10:22:05.054Z,98378.00
2018-07-17T10:24:37.532Z,98377.00
2018-07-17T10:27:08.476Z,98380.00
2018-07-17T10:29:38.409Z,98383.00
2018-07-17T10:32:09.262Z,98379.00
2018-07-17T10:34:39.461Z,98383.00
2018-07-17T10:37:12.425Z,98376.00
2018-07-17T10:39:45.236Z,98374.00
2018-07-17T10:42:14.337Z,98376.00
2018-07-17T10:44:46.336Z,98367.00
2018-07-17T10:47:17.219Z,98366.00
2018-07-17T10:49:48.271Z,98368.00
2018-07-17T10:52:18.477Z,98377.00
2018-07-17T10:54:49.148Z,98374.00
2018-07-17T10:57:19.940Z,98358.00
2018-07-17T10:59:49.756Z,98365.00
2018-07-17T11:02:21.985Z,98356.00
2018-07-17T11:04:52.429Z,98359.00
2018-07-17T11:07:24.309Z,98353.00
2018-07-17T11:09:57.398Z,98359.00
2018-07-17T11:12:26.816Z,98350.00
2018-07-17T11:14:57.648Z,98350.00
2018-07-17T11:17:28.989Z,98357.00
2018-07-17T11:19:59.832Z,98352.00
2018-07-17T11:22:28.927Z,98358.00
2018-07-17T11:24:59.770Z,98355.00
2018-07-17T11:27:30.090Z,98354.00
2018-07-17T11:30:00.786Z,98365.00
2018-07-17T11:32:32.988Z,98370.00
2018-07-17T11:35:03.265Z,98372.00
2018-07-17T11:37:32.665Z,98378.00
2018-07-17T11:40:02.326Z,98371.00
2018-07-17T11:42:34.750Z,98364.00
2018-07-17T11:45:07.275Z,98377.00
2018-07-17T11:47:39.190Z,98392.00
2018-07-17T11:50:12.440Z,98404.00
2018-07-17T11:52:45.620Z,98426.00
2018-07-17T11:55:18.194Z,98431.00
2018-07-17T11:57:48.833Z,98427.00
2018-07-17T12:00:20.379Z,98433.00
2018-07-17T12:02:50.094Z,98428.00
2018-07-17T12:05:27.970Z,98434.00
2018-07-17T12:07:59.257Z,98442.00
2018-07-17T12:10:34.272Z,98442.00
2018-07-17T12:13:10.437Z,98440.00
2018-07-17T12:15:45.480Z,98452.00
2018-07-17T12:18:15.593Z,98448.00
2018-07-17T12:20:50.503Z,98451.00
2018-07-17T12:23:21.748Z,98444.00
2018-07-17T12:25:56.705Z,98447.00
2018-07-17T12:28:30.171Z,98437.00
2018-07-17T12:30:59.916Z,98429.00
2018-07-17T12:33:32.328Z,98413.00
2018-07-17T12:36:05.066Z,98400.00
2018-07-17T12:38:40.209Z,98388.00
2018-07-17T12:41:10.936Z,98386.00
2018-07-17T12:43:42.407Z,98383.00
2018-07-17T12:46:12.925Z,98385.00
2018-07-17T12:48:42.838Z,98382.00
2018-07-17T12:51:12.506Z,98383.00
2018-07-17T12:53:54.812Z,98384.00
2018-07-17T12:56:28.659Z,98383.00
2018-07-17T12:59:04.142Z,98373.00
2018-07-17T13:01:42.515Z,98368.00
2018-07-17T13:04:20.684Z,98363.00
2018-07-17T13:06:53.001Z,98366.00
2018-07-17T13:09:29.216Z,98361.00
2018-07-17T13:12:00.825Z,98357.00
2018-07-17T13:14:31.320Z,98363.00
2018-07-17T13:17:03.441Z,98370.00
2018-07-17T13:19:35.329Z,98370.00
2018-07-17T13:22:08.288Z,98368.00
2018-07-17T13:24:40.780Z,98357.00
2018-07-17T13:27:14.625Z,98365.00
2018-07-17T13:29:45.076Z,98354.00
2018-07-17T13:32:15.375Z,98354.00
2018-07-17T13:34:45.408Z,98349.00
2018-07-17T13:37:15.031Z,98353.00
2018-07-17T13:39:45.006Z,98351.00
2018-07-17T13:42:17.149Z,98356.00
2018-07-17T13:44:51.748Z,98350.00
2018-07-17T13:47:21.138Z,98349.00
2018-07-17T13:49:54.901Z,98349.00
2018-07-17T13:52:24.978Z,98341.00
2018-07-17T13:54:57.356Z,98338.00
2018-07-17T13:57:27.096Z,98344.00
2018-07-17T13:59:57.736Z,98343.00
2018-07-17T14:02:27.313Z,98345.00
2018-07-17T14:04:57.395Z,98344.00
2018-07-17T14:07:28.237Z,98346.00
2018-07-17T14:09:59.200Z,98353.00
2018-07-17T14:12:30.538Z,98364.00
2018-07-17T14:15:01.412Z,98370.00
2018-07-17T14:17:30.300Z,98381.00
2018-07-17T14:20:01.802Z,98385.00
2018-07-17T14:22:33.007Z,98392.00
2018-07-17T14:25:04.428Z,98391.00
2018-07-17T14:27:33.661Z,98399.00
2018-07-17T14:30:02.972Z,98400.00
2018-07-17T14:32:33.228Z,98408.00
2018-07-17T14:35:03.713Z,98415.00
2018-07-17T14:37:33.845Z,98420.00
2018-07-17T14:40:05.796Z,98425.00
2018-07-17T14:42:36.204Z,98431.00
2018-07-17T14:45:12.744Z,98429.00
2018-07-17T14:47:45.540Z,98438.00
2018-07-17T14:50:23.573Z,98437.00
2018-07-17T14:52:57.387Z,98439.00
2018-07-17T14:55:31.913Z,98448.00
2018-07-17T15:00:56.093Z,98457.00
2018-07-17T15:03:35.397Z,98449.00
2018-07-17T15:06:12.550Z,98450.00
2018-07-17T15:08:54.130Z,98453.00
2018-07-17T15:11:31.816Z,98455.00
2018-07-17T15:14:02.036Z,98447.00
2018-07-17T15:16:36.094Z,98442.00
2018-07-17T15:19:10.749Z,98440.00
2018-07-17T15:21:44.675Z,98440.00
2018-07-17T15:24:15.500Z,98437.00
2018-07-17T15:26:48.105Z,98422.00
2018-07-17T15:29:20.253Z,98423.00
2018-07-17T15:31:53.161Z,98425.00
2018-07-17T15:34:25.214Z,98422.00
2018-07-17T15:37:01.701Z,98420.00
2018-07-17T15:39:31.425Z,98413.00
2018-07-17T15:42:01.810Z,98411.00
2018-07-17T15:44:31.276Z,98410.00
2018-07-17T15:47:00.372Z,98412.00
2018-07-17T15:49:29.814Z,98407.00
2018-07-17T15:51:59.320Z,98416.00
2018-07-17T15:54:28.434Z,98409.00
2018-07-17T15:56:57.724Z,98407.00
2018-07-17T15:59:27.644Z,98416.00
2018-07-17T16:01:57.805Z,98420.00
2018-07-17T16:04:27.214Z,98423.00
2018-07-17T16:06:58.005Z,98421.00
2018-07-17T16:09:27.551Z,98419.00
2018-07-17T16:11:56.689Z,98418.00
2018-07-17T16:14:26.252Z,98418.00
2018-07-17T16:16:55.428Z,98413.00
2018-07-17T16:19:25.163Z,98413.00
2018-07-17T16:21:55.416Z,98415.00
2018-07-17T16:24:25.199Z,98421.00
2018-07-17T16:26:54.836Z,98423.00
2018-07-17T16:29:25.396Z,98420.00
2018-07-17T16:31:56.611Z,98427.00
2018-07-17T16:34:29.569Z,98444.00
2018-07-17T16:36:59.532Z,98444.00
2018-07-17T16:39:30.629Z,98448.00
2018-07-17T16:42:04.818Z,98445.00
2018-07-17T16:44:36.547Z,98443.00
2018-07-17T16:47:07.040Z,98443.00
2018-07-17T16:49:39.777Z,98448.00
2018-07-17T16:52:10.725Z,98446.00
2018-07-17T16:54:41.753Z,98448.00
2018-07-17T16:57:12.376Z,98446.00
2018-07-17T16:59:42.034Z,98449.00
2018-07-17T17:02:14.240Z,98455.00
2018-07-17T17:04:45.289Z,98455.00
2018-07-17T17:07:15.922Z,98454.00
2018-07-17T17:09:46.711Z,98454.00
2018-07-17T17:12:22.776Z,98452.00
2018-07-17T17:14:56.955Z,98449.00
2018-07-17T17:17:35.333Z,98447.00
2018-07-17T17:20:11.569Z,98453.00
2018-07-17T17:22:42.200Z,98452.00
2018-07-17T17:25:16.604Z,98452.00
2018-07-17T17:27:46.956Z,98459.00
2018-07-17T17:30:21.457Z,98450.00
2018-07-17T17:32:54.354Z,98446.00
2018-07-17T17:35:26.777Z,98446.00
2018-07-17T17:38:02.105Z,98447.00
2018-07-17T17:40:32.261Z,98450.00
2018-07-17T17:43:05.073Z,98443.00
2018-07-17T17:45:38.781Z,98443.00
2018-07-17T17:48:09.710Z,98447.00
2018-07-17T17:50:40.041Z,98449.00
2018-07-17T17:53:11.099Z,98452.00
2018-07-17T17:55:44.401Z,98452.00
2018-07-17T17:58:14.332Z,98460.00
2018-07-17T18:00:44.013Z,98458.00
2018-07-17T18:03:17.310Z,98461.00
2018-07-17T18:05:54.183Z,98464.00
2018-07-17T18:08:24.201Z,98468.00
2018-07-17T18:10:57.292Z,98467.00
2018-07-17T18:13:27.513Z,98476.00
2018-07-17T18:16:06.560Z,98477.00
2018-07-17T18:18:38.096Z,98475.00
2018-07-17T18:21:08.669Z,98489.00
2018-07-17T18:23:38.748Z,98490.00
2018-07-17T18:26:08.560Z,98492.00
2018-07-17T18:28:40.588Z,98492.00
2018-07-17T18:31:10.149Z,98500.00
2018-07-17T18:33:39.636Z,98500.00
2018-07-17T18:36:11.804Z,98498.00
2018-07-17T18:38:44.980Z,98499.00
2018-07-17T18:41:14.604Z,98503.00
2018-07-17T18:43:47.017Z,98505.00
2018-07-17T18:46:17.411Z,98506.00
2018-07-17T18:48:50.209Z,98508.00
2018-07-17T18:51:22.763Z,98508.00
2018-07-17T18:53:51.886Z,98509.00
2018-07-17T18:56:23.929Z,98510.00
2018-07-17T18:58:57.337Z,98518.00
2018-07-17T19:01:26.811Z,98525.00
2018-07-17T19:03:59.392Z,98527.00
2018-07-17T19:06:29.895Z,98525.00
2018-07-17T19:09:00.754Z,98525.00
2018-07-17T19:11:32.839Z,98525.00
2018-07-17T19:14:02.881Z,98526.00
2018-07-17T19:16:33.181Z,98532.00
2018-07-17T19:19:06.831Z,98538.00
2018-07-17T19:21:37.572Z,98535.00
2018-07-17T19:24:11.194Z,98538.00
2018-07-17T19:26:43.477Z,98546.00
2018-07-17T19:29:18.825Z,98549.00
2018-07-17T19:31:48.237Z,98555.00
2018-07-17T19:34:24.900Z,98555.00
2018-07-17T19:36:56.664Z,98561.00
2018-07-17T19:39:28.316Z,98566.00
2018-07-17T19:41:58.248Z,98574.00
2018-07-17T19:44:28.037Z,98576.00
2018-07-17T19:46:57.557Z,98573.00
2018-07-17T19:49:28.484Z,98577.00
2018-07-17T19:51:58.392Z,98582.00
2018-07-17T19:54:29.464Z,98589.00
2018-07-17T19:57:04.797Z,98591.00
2018-07-17T19:59:35.824Z,98602.00
2018-07-17T20:02:07.593Z,98604.00
2018-07-17T20:04:37.423Z,98602.00
2018-07-17T20:07:08.601Z,98608.00
2018-07-17T20:09:46.785Z,98612.00
2018-07-17T20:12:18.710Z,98612.00
2018-07-17T20:14:52.444Z,98609.00
2018-07-17T20:17:27.451Z,98613.00
2018-07-17T20:20:01.559Z,98619.00
2018-07-17T20:22:36.065Z,98615.00
2018-07-17T20:25:07.053Z,98615.00
2018-07-17T20:27:39.682Z,98619.00
2018-07-17T20:30:09.314Z,98620.00
2018-07-17T20:32:38.769Z,98630.00
2018-07-17T20:35:11.500Z,98628.00
2018-07-17T20:37:42.255Z,98627.00
2018-07-17T20:40:14.403Z,98629.00
2018-07-17T20:42:45.853Z,98630.00
2018-07-17T20:45:17.280Z,98638.00
2018-07-17T20:47:47.300Z,98635.00
2018-07-17T20:50:19.196Z,98638.00
2018-07-17T20:52:49.560Z,98639.00
2018-07-17T20:55:21.791Z,98639.00
2018-07-17T20:57:52.741Z,98643.00
2018-07-17T21:00:24.367Z,98646.00
2018-07-17T21:02:55.390Z,98670.00
2018-07-17T21:05:25.818Z,98674.00
2018-07-17T21:08:00.085Z,98667.00
2018-07-17T21:10:31.400Z,98673.00
2018-07-17T21:13:02.031Z,98674.00
2018-07-17T21:15:32.960Z,98674.00
2018-07-17T21:18:09.491Z,98680.00
2018-07-17T21:20:40.976Z,98679.00
2018-07-17T21:23:10.855Z,98682.00
2018-07-17T21:25:41.590Z,98677.00
2018-07-17T21:28:16.009Z,98685.00
2018-07-17T21:30:48.894Z,98683.00
2018-07-17T21:33:20.380Z,98689.00
2018-07-17T21:35:55.819Z,98691.00
2018-07-17T21:38:35.237Z,98687.00
2018-07-17T21:41:07.322Z,98686.00
2018-07-17T21:43:53.345Z,98689.00
2018-07-17T21:46:24.972Z,98693.00
2018-07-17T21:49:00.808Z,98701.00
2018-07-17T21:51:35.688Z,98702.00
2018-07-17T21:54:06.927Z,98705.00
2018-07-17T21:56:37.516Z,98706.00
2018-07-17T21:59:08.173Z,98707.00
2018-07-17T22:01:40.033Z,98706.00
2018-07-17T22:04:12.426Z,98707.00
2018-07-17T22:06:42.297Z,98707.00
2018-07-17T22:09:13.189Z,98708.00
2018-07-17T22:11:46.578Z,98709.00
2018-07-17T22:14:17.417Z,98709.00
2018-07-17T22:16:49.014Z,98705.00
2018-07-17T22:19:21.194Z,98710.00
2018-07-17T22:21:50.943Z,98709.00
2018-07-17T22:24:21.224Z,98710.00
2018-07-17T22:26:54.160Z,98709.00
2018-07-17T22:29:25.740Z,98709.00
2018-07-17T22:31:55.628Z,98705.00
2018-07-17T22:34:25.825Z,98709.00
2018-07-17T22:36:59.144Z,98706.00
2018-07-17T22:39:31.522Z,98706.00
2018-07-17T22:42:02.924Z,98711.00
2018-07-17T22:44:36.090Z,98710.00
2018-07-17T22:47:08.533Z,98709.00
2018-07-17T22:49:38.296Z,98716.00
2018-07-17T22:52:09.120Z,98710.00
2018-07-17T22:54:39.306Z,98721.00
2018-07-17T22:57:09.500Z,98725.00
2018-07-17T22:59:40.413Z,98726.00
2018-07-17T23:02:10.687Z,98721.00
2018-07-17T23:04:39.752Z,98726.00
2018-07-17T23:07:09.248Z,98726.00
2018-07-17T23:09:43.089Z,98731.00
2018-07-17T23:12:12.688Z,98728.00
2018-07-17T23:14:42.845Z,98724.00
2018-07-17T23:17:13.635Z,98724.00
2018-07-17T23:19:43.021Z,98727.00
2018-07-17T23:22:20.209Z,98723.00
2018-07-17T23:24:54.051Z,98725.00
2018-07-17T23:27:27.209Z,98727.00
2018-07-17T23:29:58.666Z,98729.00
2018-07-17T23:32:28.910Z,98737.00
2018-07-17T23:35:01.905Z,98736.00
2018-07-17T23:37:34.201Z,98730.00
2018-07-17T23:40:07.933Z,98731.00
2018-07-17T23:42:41.337Z,98730.00
2018-07-17T23:45:15.713Z,98738.00
2018-07-17T23:47:51.727Z,98739.00
2018-07-17T23:53:11.668Z,98740.00
2018-07-17T23:55:48.308Z,98740.00
2018-07-17T23:58:26.408Z,98735.00
